Time;durP1;ratioP1;P1;durP2;ratioP2;P2;SDS_P1;SDS_P2;PMS_P1;PMS_P2;Temp;Humidity;BMP_temperature;BMP_pressure;BME280_temperature;BME280_humidity;BME280_pressure;Samples;Min_cycle;Max_cycle;Signal;HPM_P1;HPM_P2
2021/04/20 00:00:54;;;;;;;38.60;23.20;;;4.10;99.90;;;;;;2072441;28;20614;-75
2021/04/20 00:01:54;;;;;;;34.37;23.37;;;4.10;99.90;;;;;;2072379;28;20676;-75
2021/04/20 00:02:55;;;;;;;36.10;23.90;;;4.10;99.90;;;;;;2073090;28;20189;-75
2021/04/20 00:03:56;;;;;;;37.20;24.47;;;4.10;99.90;;;;;;2073079;28;20235;-75
2021/04/20 00:04:57;;;;;;;41.70;26.27;;;4.10;99.90;;;;;;2073073;28;20194;-76
2021/04/20 00:05:57;;;;;;;38.17;24.50;;;4.10;99.90;;;;;;2073125;28;20226;-75
2021/04/20 00:06:58;;;;;;;34.20;21.63;;;4.10;99.90;;;;;;2072429;28;20270;-76
2021/04/20 00:07:59;;;;;;;36.57;22.57;;;4.20;99.90;;;;;;2072478;28;20210;-76
2021/04/20 00:09:00;;;;;;;36.40;22.40;;;4.20;99.90;;;;;;2064244;28;20222;-75
2021/04/20 00:10:06;;;;;;;34.45;22.13;;;4.20;99.90;;;;;;2064554;28;20733;-75
2021/04/20 00:11:06;;;;;;;34.60;22.40;;;4.20;99.90;;;;;;2064824;28;20194;-76
2021/04/20 00:12:08;;;;;;;35.83;22.90;;;4.10;99.90;;;;;;2064380;28;20230;-75
2021/04/20 00:13:09;;;;;;;28.88;20.17;;;4.10;99.90;;;;;;2064315;28;20175;-75
2021/04/20 00:14:12;;;;;;;32.90;20.57;;;4.00;99.90;;;;;;2072505;28;20217;-74
2021/04/20 00:15:26;;;;;;;35.13;22.23;;;4.00;99.90;;;;;;2072350;28;20178;-75
2021/04/20 00:16:27;;;;;;;31.73;21.85;;;4.00;99.90;;;;;;2066097;28;20158;-75
2021/04/20 00:17:28;;;;;;;33.30;21.63;;;4.00;99.90;;;;;;2072334;28;20197;-75
2021/04/20 00:18:28;;;;;;;35.87;22.60;;;4.00;99.90;;;;;;2072155;28;20245;-75
2021/04/20 00:19:29;;;;;;;32.90;21.53;;;3.90;99.90;;;;;;2063583;28;20180;-75
2021/04/20 00:20:30;;;;;;;34.23;21.53;;;4.00;99.90;;;;;;2072495;28;20182;-75
2021/04/20 00:21:31;;;;;;;37.55;22.98;;;4.00;99.90;;;;;;2080182;28;20178;-75
2021/04/20 00:22:32;;;;;;;33.67;22.23;;;4.00;99.90;;;;;;2072997;28;20261;-75
2021/04/20 00:23:33;;;;;;;37.87;24.73;;;3.90;99.90;;;;;;2072356;28;20657;-75
2021/04/20 00:24:33;;;;;;;39.13;24.03;;;3.90;99.90;;;;;;2072448;28;20218;-75
2021/04/20 00:25:34;;;;;;;42.57;25.13;;;3.80;99.90;;;;;;2072320;28;20174;-75
2021/04/20 00:26:35;;;;;;;37.55;22.63;;;3.80;99.90;;;;;;2072376;28;20749;-75
2021/04/20 00:27:36;;;;;;;34.27;22.33;;;3.70;99.90;;;;;;2072291;28;20193;-75
2021/04/20 00:28:37;;;;;;;37.10;22.70;;;3.70;99.90;;;;;;2072292;28;20651;-75
2021/04/20 00:29:38;;;;;;;41.03;24.53;;;3.70;99.90;;;;;;2072252;28;20209;-76
2021/04/20 00:30:40;;;;;;;34.33;22.40;;;3.70;99.90;;;;;;2072918;28;20202;-75
2021/04/20 00:31:40;;;;;;;40.97;23.92;;;3.70;99.90;;;;;;2072672;28;20190;-75
2021/04/20 00:32:42;;;;;;;44.13;25.90;;;3.60;99.90;;;;;;2072923;28;20188;-76
2021/04/20 00:33:43;;;;;;;41.35;24.75;;;3.60;99.90;;;;;;2064028;28;20182;-76
2021/04/20 00:34:43;;;;;;;36.23;23.03;;;3.50;99.90;;;;;;2064181;28;20179;-75
2021/04/20 00:35:44;;;;;;;49.47;26.33;;;3.50;99.90;;;;;;2072757;28;20200;-75
2021/04/20 00:36:45;;;;;;;42.37;25.60;;;3.40;99.90;;;;;;2072313;28;20187;-75
2021/04/20 00:37:46;;;;;;;42.07;24.67;;;3.40;99.90;;;;;;2072203;28;20181;-75
2021/04/20 00:38:46;;;;;;;45.70;25.23;;;3.40;99.90;;;;;;2072887;28;20202;-74
2021/04/20 00:39:47;;;;;;;37.60;23.23;;;3.30;99.90;;;;;;2072186;28;20640;-75
2021/04/20 00:40:48;;;;;;;35.67;22.80;;;3.20;99.90;;;;;;2072396;28;20239;-75
2021/04/20 00:42:03;;;;;;;41.33;24.30;;;3.20;99.90;;;;;;2063815;28;20182;-75
2021/04/20 00:43:04;;;;;;;48.05;25.23;;;3.20;99.90;;;;;;2059937;28;20178;-75
2021/04/20 00:44:05;;;;;;;46.08;26.65;;;3.10;99.90;;;;;;2064223;28;20704;-75
2021/04/20 00:45:07;;;;;;;46.13;26.00;;;3.10;99.90;;;;;;2064209;28;20190;-75
2021/04/20 00:46:09;;;;;;;40.83;24.30;;;3.10;99.90;;;;;;2064214;28;20194;-75
2021/04/20 00:47:09;;;;;;;40.97;24.00;;;3.10;99.90;;;;;;2064358;28;20255;-76
2021/04/20 00:48:10;;;;;;;42.00;24.50;;;3.10;99.90;;;;;;2072200;28;20875;-75
2021/04/20 00:49:11;;;;;;;41.63;24.27;;;3.10;99.90;;;;;;2072798;28;20649;-75
2021/04/20 00:50:14;;;;;;;42.23;25.17;;;3.10;99.90;;;;;;2072187;28;20205;-75
2021/04/20 00:51:15;;;;;;;43.20;26.38;;;3.00;99.90;;;;;;2063837;28;20248;-76
2021/04/20 00:52:16;;;;;;;57.92;28.80;;;3.10;99.90;;;;;;2056256;28;20180;-77
2021/04/20 00:53:16;;;;;;;56.20;28.77;;;3.10;99.90;;;;;;2072392;28;20180;-75
2021/04/20 00:54:18;;;;;;;51.83;28.00;;;3.00;99.90;;;;;;2072695;28;20242;-75
2021/04/20 00:55:19;;;;;;;64.63;30.45;;;3.00;99.90;;;;;;2072255;28;20282;-75
2021/04/20 00:56:20;;;;;;;45.97;26.40;;;3.00;99.90;;;;;;2072225;28;20188;-75
2021/04/20 00:57:20;;;;;;;43.67;25.33;;;3.00;99.90;;;;;;2072841;28;20175;-75
2021/04/20 00:58:21;;;;;;;48.00;26.17;;;3.00;99.90;;;;;;2072268;28;20198;-75
2021/04/20 00:59:23;;;;;;;51.43;27.33;;;3.00;99.90;;;;;;2072130;28;20836;-75
2021/04/20 01:00:29;;;;;;;45.88;25.25;;;2.90;99.90;;;;;;2064274;28;20209;-75
2021/04/20 01:01:32;;;;;;;46.50;25.77;;;2.90;99.90;;;;;;2064763;28;20163;-75
2021/04/20 01:02:33;;;;;;;45.78;24.83;;;2.90;99.90;;;;;;2072221;28;20174;-75
2021/04/20 01:03:34;;;;;;;58.00;29.67;;;2.80;99.90;;;;;;2072282;28;20649;-75
2021/04/20 01:04:35;;;;;;;43.57;25.97;;;2.80;99.90;;;;;;2072226;28;20421;-76
2021/04/20 01:05:38;;;;;;;54.67;26.40;;;2.70;99.90;;;;;;2072690;28;20556;-75
2021/04/20 01:06:43;;;;;;;45.25;25.15;;;2.70;99.90;;;;;;2072267;28;20178;-75
2021/04/20 01:07:45;;;;;;;37.05;22.27;;;2.70;99.90;;;;;;2065053;28;20236;-75
2021/04/20 01:08:47;;;;;;;42.63;23.73;;;2.60;99.90;;;;;;2072126;28;20228;-75
2021/04/20 01:09:49;;;;;;;37.00;23.83;;;2.60;99.90;;;;;;2064271;28;20258;-75
2021/04/20 01:10:54;;;;;;;42.28;25.00;;;2.50;99.90;;;;;;2072118;28;20221;-76
2021/04/20 01:11:55;;;;;;;47.03;26.20;;;2.50;99.90;;;;;;2064614;28;20185;-76
2021/04/20 01:12:56;;;;;;;53.80;26.73;;;2.40;99.90;;;;;;2064106;28;20633;-75
2021/04/20 01:14:04;;;;;;;48.97;25.63;;;2.40;99.90;;;;;;2072251;28;20656;-75
2021/04/20 01:15:08;;;;;;;51.53;25.95;;;2.30;99.90;;;;;;2072219;28;20641;-75
2021/04/20 01:16:08;;;;;;;49.95;25.38;;;2.20;99.90;;;;;;2072168;28;20710;-75
2021/04/20 01:17:09;;;;;;;62.17;27.83;;;2.20;99.90;;;;;;2072218;28;20185;-75
2021/04/20 01:18:20;;;;;;;51.17;26.13;;;2.10;99.90;;;;;;2072341;28;20178;-73
2021/04/20 01:19:23;;;;;;;56.08;27.73;;;2.10;99.90;;;;;;2072810;28;20169;-75
2021/04/20 01:20:24;;;;;;;44.13;23.58;;;2.10;99.90;;;;;;2072400;28;20184;-75
2021/04/20 01:21:25;;;;;;;47.27;24.17;;;2.00;99.90;;;;;;2063897;28;20638;-75
2021/04/20 01:22:33;;;;;;;51.65;25.65;;;2.10;99.90;;;;;;2064142;28;20190;-75
2021/04/20 01:24:21;;;;;;;41.75;24.15;;;2.00;99.90;;;;;;2073371;28;20246;-75
2021/04/20 01:25:22;;;;;;;56.10;25.88;;;2.00;99.90;;;;;;2074386;28;20201;-74
2021/04/20 01:26:32;;;;;;;41.00;23.42;;;1.90;99.90;;;;;;2072289;28;20695;-75
2021/04/20 01:27:34;;;;;;;51.05;25.80;;;1.90;99.90;;;;;;2072309;28;20613;-75
2021/04/20 01:28:36;;;;;;;51.85;25.90;;;1.90;99.90;;;;;;2064366;28;20206;-75
2021/04/20 01:29:37;;;;;;;47.35;25.42;;;1.80;99.90;;;;;;2072141;28;20663;-74
2021/04/20 01:30:37;;;;;;;57.17;27.13;;;1.80;99.90;;;;;;2073360;28;20216;-75
2021/04/20 01:31:42;;;;;;;44.10;25.50;;;1.80;99.90;;;;;;2065349;28;20658;-75
2021/04/20 01:32:43;;;;;;;58.08;27.02;;;1.80;99.90;;;;;;2058618;28;20186;-74
2021/04/20 01:33:44;;;;;;;47.43;25.47;;;1.80;99.90;;;;;;2065684;28;20181;-75
2021/04/20 01:34:45;;;;;;;46.85;25.80;;;1.80;99.90;;;;;;2065856;28;20208;-75
2021/04/20 01:35:46;;;;;;;45.80;26.07;;;1.80;99.90;;;;;;2065833;28;20217;-75
2021/04/20 01:36:47;;;;;;;43.70;24.63;;;1.80;99.90;;;;;;2073892;28;20178;-74
2021/04/20 01:37:47;;;;;;;45.53;24.47;;;1.80;99.90;;;;;;2074010;28;20173;-75
2021/04/20 01:38:51;;;;;;;40.77;23.63;;;1.80;99.90;;;;;;2074201;28;20228;-75
2021/04/20 01:39:53;;;;;;;42.58;25.00;;;1.90;99.90;;;;;;2065415;28;20703;-75
2021/04/20 01:40:53;;;;;;;40.47;23.45;;;1.90;99.90;;;;;;2065762;28;20724;-75
2021/04/20 01:41:54;;;;;;;38.90;23.77;;;1.90;99.90;;;;;;2065440;28;20186;-75
2021/04/20 01:42:56;;;;;;;58.10;28.60;;;1.90;99.90;;;;;;2065482;28;20638;-75
2021/04/20 01:43:57;;;;;;;61.92;29.92;;;2.00;99.90;;;;;;2065703;28;20669;-74
2021/04/20 01:44:58;;;;;;;46.60;26.60;;;2.00;99.90;;;;;;2073740;28;20264;-74
2021/04/20 01:45:59;;;;;;;52.40;28.70;;;2.00;99.90;;;;;;2073641;28;20186;-75
2021/04/20 01:46:59;;;;;;;57.83;30.10;;;2.10;99.90;;;;;;2073577;28;20420;-75
2021/04/20 01:48:00;;;;;;;45.63;24.73;;;2.10;99.90;;;;;;2073427;28;20188;-75
2021/04/20 01:49:02;;;;;;;55.03;28.37;;;2.10;99.90;;;;;;2073662;28;20312;-75
2021/04/20 01:50:05;;;;;;;53.38;28.50;;;2.20;99.90;;;;;;2073689;28;20182;-74
2021/04/20 01:51:06;;;;;;;49.47;27.02;;;2.20;99.90;;;;;;2073555;28;20213;-75
2021/04/20 01:52:06;;;;;;;44.93;26.20;;;2.20;99.90;;;;;;2074176;28;20178;-74
2021/04/20 01:53:07;;;;;;;52.87;27.80;;;2.30;99.90;;;;;;2073565;28;20178;-75
2021/04/20 01:54:08;;;;;;;46.63;25.93;;;2.30;99.90;;;;;;2065422;28;20312;-75
2021/04/20 01:55:12;;;;;;;43.97;25.13;;;2.30;99.90;;;;;;2073555;28;20174;-75
2021/04/20 01:56:12;;;;;;;40.83;23.95;;;2.30;99.90;;;;;;2073749;28;20185;-75
2021/04/20 01:57:16;;;;;;;38.97;22.60;;;2.40;99.90;;;;;;2073539;28;20645;-74
2021/04/20 01:58:17;;;;;;;43.15;24.00;;;2.40;99.90;;;;;;2073567;28;20715;-74
2021/04/20 01:59:20;;;;;;;46.72;25.23;;;2.50;99.90;;;;;;2065246;28;20189;-74
2021/04/20 02:00:22;;;;;;;39.33;23.83;;;2.50;99.90;;;;;;2058111;28;20230;-75
2021/04/20 02:01:26;;;;;;;42.60;24.95;;;2.50;99.90;;;;;;2065415;28;20178;-75
2021/04/20 02:02:27;;;;;;;47.10;25.60;;;2.50;99.90;;;;;;2066028;28;20174;-74
2021/04/20 02:03:29;;;;;;;50.47;25.83;;;2.50;99.90;;;;;;2073575;28;20221;-75
2021/04/20 02:04:30;;;;;;;61.25;28.42;;;2.60;99.90;;;;;;2073440;28;20208;-75
2021/04/20 02:05:31;;;;;;;63.83;29.27;;;2.50;99.90;;;;;;2073496;28;20637;-75
2021/04/20 02:06:32;;;;;;;63.63;27.75;;;2.50;99.90;;;;;;2073546;28;20582;-74
2021/04/20 02:07:33;;;;;;;50.00;28.83;;;2.50;99.90;;;;;;2073453;28;20174;-74
2021/04/20 02:08:34;;;;;;;57.83;29.08;;;2.60;99.90;;;;;;2065329;28;20202;-75
2021/04/20 02:09:35;;;;;;;64.13;31.17;;;2.60;99.90;;;;;;2073264;28;20185;-75
2021/04/20 02:10:35;;;;;;;52.67;29.57;;;2.60;99.90;;;;;;2063477;28;20771;-75
2021/04/20 02:11:37;;;;;;;50.77;27.93;;;2.60;99.90;;;;;;2057176;28;20245;-75
2021/04/20 02:12:44;;;;;;;54.80;28.95;;;2.70;99.90;;;;;;2065306;28;20186;-75
2021/04/20 02:13:45;;;;;;;50.30;26.85;;;2.70;99.90;;;;;;2066144;28;20191;-75
2021/04/20 02:14:46;;;;;;;39.17;23.27;;;2.70;99.90;;;;;;2074256;28;20565;-74
2021/04/20 02:15:47;;;;;;;50.53;25.40;;;2.70;99.90;;;;;;2073838;28;20193;-75
2021/04/20 02:16:48;;;;;;;45.70;24.60;;;2.80;99.90;;;;;;2065608;28;20537;-74
2021/04/20 02:17:49;;;;;;;45.83;24.90;;;2.80;99.90;;;;;;2065884;28;20194;-74
2021/04/20 02:18:57;;;;;;;41.00;22.77;;;2.80;99.90;;;;;;2065683;28;20740;-74
2021/04/20 02:20:03;;;;;;;37.92;21.25;;;2.80;99.90;;;;;;2073854;28;20170;-74
2021/04/20 02:21:04;;;;;;;45.83;23.15;;;2.70;99.90;;;;;;2074318;28;20248;-73
2021/04/20 02:22:06;;;;;;;37.50;21.38;;;2.70;99.90;;;;;;2081674;28;21079;-74
2021/04/20 02:23:08;;;;;;;35.25;20.73;;;2.70;99.90;;;;;;2073610;28;20188;-74
2021/04/20 02:24:15;;;;;;;35.15;20.65;;;2.80;99.90;;;;;;2073753;28;20190;-74
2021/04/20 02:25:18;;;;;;;34.22;19.70;;;2.80;99.90;;;;;;2073547;28;20186;-74
2021/04/20 02:26:30;;;;;;;49.33;23.70;;;2.80;99.90;;;;;;2065512;28;20848;-74
2021/04/20 02:27:34;;;;;;;49.25;23.65;;;2.80;99.90;;;;;;2060292;28;20642;-75
2021/04/20 02:28:35;;;;;;;40.33;21.42;;;2.80;99.90;;;;;;2065729;28;20268;-74
2021/04/20 02:29:36;;;;;;;38.17;20.70;;;2.80;99.90;;;;;;2065283;28;20187;-74
2021/04/20 02:30:37;;;;;;;35.27;20.60;;;2.80;99.90;;;;;;2065263;28;20202;-75
2021/04/20 02:31:41;;;;;;;41.47;21.67;;;2.80;99.90;;;;;;2064913;28;20191;-75
2021/04/20 02:32:42;;;;;;;38.05;21.38;;;2.80;99.90;;;;;;2073466;28;20201;-75
2021/04/20 02:33:43;;;;;;;42.08;21.73;;;2.80;99.90;;;;;;2065256;28;20186;-74
2021/04/20 02:34:44;;;;;;;37.73;22.00;;;2.80;99.90;;;;;;2065290;28;20673;-75
2021/04/20 02:35:44;;;;;;;37.97;21.47;;;2.80;99.90;;;;;;2065194;28;20432;-74
2021/04/20 02:36:45;;;;;;;35.10;22.03;;;2.80;99.90;;;;;;2065315;28;20194;-74
2021/04/20 02:37:46;;;;;;;36.77;21.50;;;2.80;99.90;;;;;;2065127;28;20278;-75
2021/04/20 02:38:47;;;;;;;40.20;23.33;;;2.90;99.90;;;;;;2073314;28;20193;-75
2021/04/20 02:39:49;;;;;;;39.57;22.13;;;2.90;99.90;;;;;;2073853;28;20542;-75
2021/04/20 02:40:54;;;;;;;40.70;21.80;;;2.90;99.90;;;;;;2073318;28;20281;-75
2021/04/20 02:41:55;;;;;;;37.70;21.55;;;2.90;99.90;;;;;;2065156;28;20174;-74
2021/04/20 02:42:57;;;;;;;38.50;21.05;;;2.90;99.90;;;;;;2064854;28;20187;-75
2021/04/20 02:44:01;;;;;;;34.38;20.65;;;2.90;99.90;;;;;;2065270;28;20182;-75
2021/04/20 02:45:05;;;;;;;38.08;20.90;;;2.90;99.90;;;;;;2065349;28;20247;-75
2021/04/20 02:46:06;;;;;;;44.83;23.20;;;2.90;99.90;;;;;;2073158;28;20194;-74
2021/04/20 02:47:07;;;;;;;49.77;23.30;;;2.90;99.90;;;;;;2081478;28;20666;-74
2021/04/20 02:48:08;;;;;;;65.10;27.60;;;2.90;99.90;;;;;;2073080;28;20188;-75
2021/04/20 02:49:11;;;;;;;42.33;24.13;;;2.90;99.90;;;;;;2065156;28;20222;-75
2021/04/20 02:50:18;;;;;;;53.85;27.80;;;2.90;99.90;;;;;;2065256;28;20252;-74
2021/04/20 02:51:20;;;;;;;39.70;23.45;;;2.90;99.90;;;;;;2073168;28;20180;-74
2021/04/20 02:52:22;;;;;;;44.42;24.05;;;2.90;99.90;;;;;;2065136;28;20174;-75
2021/04/20 02:53:25;;;;;;;34.80;21.60;;;2.90;99.90;;;;;;2065384;28;20182;-75
2021/04/20 02:54:27;;;;;;;38.42;22.88;;;2.80;99.90;;;;;;2065410;28;20646;-75
2021/04/20 02:55:27;;;;;;;38.17;23.20;;;2.90;99.90;;;;;;2065390;28;20179;-74
2021/04/20 02:56:30;;;;;;;38.83;22.57;;;2.90;99.90;;;;;;2073099;28;20189;-74
2021/04/20 02:57:42;;;;;;;38.75;22.40;;;2.90;99.90;;;;;;2074140;28;20185;-74
2021/04/20 02:58:44;;;;;;;37.90;23.58;;;2.90;99.90;;;;;;2073355;28;20201;-74
2021/04/20 02:59:45;;;;;;;39.78;23.27;;;2.90;99.90;;;;;;2065415;28;20187;-74
2021/04/20 03:00:54;;;;;;;41.80;24.02;;;3.00;99.90;;;;;;2065385;28;20193;-75
2021/04/20 03:01:57;;;;;;;39.20;23.70;;;3.00;99.90;;;;;;2066106;28;20171;-74
2021/04/20 03:03:00;;;;;;;43.90;24.08;;;3.00;99.90;;;;;;2065398;28;20646;-74
2021/04/20 03:04:01;;;;;;;36.53;23.45;;;3.00;99.90;;;;;;2065308;28;20178;-75
2021/04/20 03:05:03;;;;;;;38.47;23.17;;;2.90;99.90;;;;;;2064940;28;20187;-74
2021/04/20 03:06:04;;;;;;;45.85;25.13;;;2.90;99.90;;;;;;2057237;28;20729;-74
2021/04/20 03:07:06;;;;;;;41.17;23.58;;;2.80;99.90;;;;;;2064992;28;20191;-74
2021/04/20 03:08:08;;;;;;;49.22;25.33;;;2.80;99.90;;;;;;2072988;28;20668;-74
2021/04/20 03:09:11;;;;;;;39.50;23.55;;;2.80;99.90;;;;;;2073481;28;20182;-74
2021/04/20 03:10:17;;;;;;;43.53;23.08;;;2.80;99.90;;;;;;2065021;28;20190;-74
2021/04/20 03:11:34;;;;;;;40.92;23.40;;;2.70;99.90;;;;;;2058054;28;20226;-74
2021/04/20 03:12:37;;;;;;;40.63;23.75;;;2.70;99.90;;;;;;2067183;28;20183;-74
2021/04/20 03:13:38;;;;;;;45.65;24.90;;;2.70;99.90;;;;;;2065203;28;20174;-75
2021/04/20 03:14:40;;;;;;;36.93;23.40;;;2.60;99.90;;;;;;2056789;28;20629;-75
2021/04/20 03:15:41;;;;;;;39.70;23.40;;;2.50;99.90;;;;;;2057024;28;20568;-74
2021/04/20 03:16:42;;;;;;;43.70;24.35;;;2.50;99.90;;;;;;2073125;28;20249;-76
2021/04/20 03:17:46;;;;;;;43.23;24.90;;;2.40;99.90;;;;;;2081234;28;20212;-75
2021/04/20 03:18:48;;;;;;;52.67;25.63;;;2.40;99.90;;;;;;2072927;28;20193;-75
2021/04/20 03:19:49;;;;;;;54.20;25.70;;;2.30;99.90;;;;;;2072880;28;20256;-74
2021/04/20 03:20:49;;;;;;;50.67;27.10;;;2.30;99.90;;;;;;2081175;28;20173;-75
2021/04/20 03:21:51;;;;;;;47.47;24.60;;;2.30;99.90;;;;;;2072707;28;20826;-75
2021/04/20 03:22:52;;;;;;;35.95;22.30;;;2.20;99.90;;;;;;2056916;28;20194;-75
2021/04/20 03:23:55;;;;;;;41.22;24.30;;;2.20;99.90;;;;;;2064882;28;20194;-74
2021/04/20 03:25:06;;;;;;;44.10;24.15;;;2.20;99.90;;;;;;2081035;28;20691;-75
2021/04/20 03:26:37;;;;;;;38.70;22.63;;;2.10;99.90;;;;;;2080265;28;20219;-74
2021/04/20 03:27:47;;;;;;;42.10;22.63;;;2.10;99.90;;;;;;2064127;28;20200;-75
2021/04/20 03:28:48;;;;;;;37.95;21.50;;;2.10;99.90;;;;;;2057952;28;20205;-74
2021/04/20 03:29:48;;;;;;;44.87;22.57;;;2.00;99.90;;;;;;2064686;28;20190;-75
2021/04/20 03:30:51;;;;;;;39.53;22.80;;;2.00;99.90;;;;;;2064641;28;20612;-74
2021/04/20 03:31:52;;;;;;;48.47;24.48;;;1.90;99.90;;;;;;2064466;28;20178;-74
2021/04/20 03:33:17;;;;;;;45.27;23.20;;;1.90;99.90;;;;;;2064720;28;20205;-74
2021/04/20 03:34:35;;;;;;;49.05;23.73;;;1.90;99.90;;;;;;2064559;28;20179;-74
2021/04/20 03:35:45;;;;;;;42.10;21.83;;;1.80;99.90;;;;;;2064603;28;20174;-74
2021/04/20 03:37:03;;;;;;;38.50;22.77;;;1.80;99.90;;;;;;2064753;28;20170;-74
2021/04/20 03:38:15;;;;;;;39.90;22.65;;;1.80;99.90;;;;;;2064520;28;20186;-74
2021/04/20 03:39:20;;;;;;;37.70;21.95;;;1.80;99.90;;;;;;2064735;28;20166;-74
2021/04/20 03:40:22;;;;;;;35.72;20.67;;;1.70;99.90;;;;;;2064557;28;20197;-74
2021/04/20 03:41:33;;;;;;;39.25;21.38;;;1.70;99.90;;;;;;2064393;28;20178;-74
2021/04/20 03:42:37;;;;;;;35.38;20.23;;;1.60;99.90;;;;;;2049775;28;20180;-75
2021/04/20 03:43:43;;;;;;;42.13;22.92;;;1.60;99.90;;;;;;2049378;28;20213;-74
2021/04/20 03:44:48;;;;;;;42.13;22.77;;;1.60;99.90;;;;;;2057045;28;20699;-74
2021/04/20 03:46:01;;;;;;;49.05;24.52;;;1.50;99.90;;;;;;2064692;28;20610;-75
2021/04/20 03:47:08;;;;;;;41.20;22.75;;;1.50;99.90;;;;;;2064699;28;20582;-74
2021/04/20 03:48:18;;;;;;;50.70;25.60;;;1.50;99.90;;;;;;2064485;28;20557;-75
2021/04/20 03:49:33;;;;;;;44.70;23.38;;;1.40;99.90;;;;;;2064744;28;20190;-74
2021/04/20 03:50:39;;;;;;;45.33;23.67;;;1.40;99.90;;;;;;2058203;28;20650;-74
2021/04/20 03:51:44;;;;;;;41.88;22.13;;;1.30;99.90;;;;;;2057016;28;20234;-75
2021/04/20 03:52:57;;;;;;;39.88;21.20;;;1.30;99.90;;;;;;2049140;28;20179;-75
2021/04/20 03:54:05;;;;;;;37.20;22.10;;;1.30;99.90;;;;;;2051741;28;20172;-75
2021/04/20 03:55:09;;;;;;;50.78;26.05;;;1.20;99.90;;;;;;2057233;28;20189;-75
2021/04/20 03:56:12;;;;;;;45.35;24.27;;;1.20;99.90;;;;;;2064454;28;20222;-75
2021/04/20 03:57:15;;;;;;;46.35;23.98;;;1.20;99.90;;;;;;2056598;28;20679;-76
2021/04/20 03:58:19;;;;;;;53.30;24.40;;;1.20;99.90;;;;;;2056697;28;20210;-75
2021/04/20 03:59:22;;;;;;;59.63;27.42;;;1.10;99.90;;;;;;2056349;28;20215;-75
2021/04/20 04:00:24;;;;;;;59.92;27.10;;;1.10;99.90;;;;;;2056297;28;20218;-75
2021/04/20 04:01:27;;;;;;;53.90;26.65;;;1.10;99.90;;;;;;2048607;28;20179;-75
2021/04/20 04:02:30;;;;;;;58.33;27.17;;;1.10;99.90;;;;;;2056629;28;20183;-75
2021/04/20 04:03:34;;;;;;;66.57;26.35;;;1.10;99.90;;;;;;2064320;28;20676;-75
2021/04/20 04:04:37;;;;;;;47.55;24.77;;;1.00;99.90;;;;;;2064524;28;20221;-75
2021/04/20 04:05:40;;;;;;;46.60;25.13;;;1.00;99.90;;;;;;2064349;28;20185;-74
2021/04/20 04:06:42;;;;;;;41.13;22.52;;;1.00;99.90;;;;;;2056533;28;20619;-75
2021/04/20 04:07:46;;;;;;;47.10;25.23;;;1.00;99.90;;;;;;2056374;28;20274;-75
2021/04/20 04:08:50;;;;;;;52.88;25.52;;;0.90;99.90;;;;;;2064167;28;20221;-75
2021/04/20 04:09:51;;;;;;;44.85;24.25;;;1.00;99.90;;;;;;2056636;28;20233;-75
2021/04/20 04:10:57;;;;;;;50.60;24.85;;;0.90;99.90;;;;;;2064347;28;20247;-75
2021/04/20 04:12:02;;;;;;;45.97;23.23;;;0.90;99.90;;;;;;2064107;28;20178;-75
2021/04/20 04:13:07;;;;;;;42.75;22.27;;;0.90;99.90;;;;;;2064191;28;20269;-75
2021/04/20 04:14:10;;;;;;;46.30;24.48;;;0.90;99.90;;;;;;2064425;28;20183;-75
2021/04/20 04:15:14;;;;;;;52.80;24.88;;;0.90;99.90;;;;;;2056179;28;20190;-75
2021/04/20 04:16:18;;;;;;;43.13;23.42;;;0.90;99.90;;;;;;2056667;28;20292;-75
2021/04/20 04:17:21;;;;;;;42.17;22.85;;;0.90;99.90;;;;;;2056654;28;20179;-74
2021/04/20 04:18:23;;;;;;;42.35;23.92;;;1.00;99.90;;;;;;2064204;28;20311;-75
2021/04/20 04:19:31;;;;;;;46.53;24.25;;;1.00;99.90;;;;;;2064295;28;20185;-75
2021/04/20 04:20:32;;;;;;;47.95;25.65;;;1.00;99.90;;;;;;2065365;28;20162;-75
2021/04/20 04:21:46;;;;;;;49.10;26.37;;;1.00;99.90;;;;;;2065496;28;20177;-75
2021/04/20 04:23:01;;;;;;;62.42;28.42;;;1.00;99.90;;;;;;2065586;28;20162;-75
2021/04/20 04:24:05;;;;;;;53.05;27.08;;;1.00;99.90;;;;;;2065702;28;20573;-74
2021/04/20 04:25:09;;;;;;;55.38;26.52;;;1.00;99.90;;;;;;2065746;28;20186;-74
2021/04/20 04:26:23;;;;;;;70.15;31.33;;;1.10;99.90;;;;;;2058036;28;20262;-74
2021/04/20 04:27:34;;;;;;;55.25;28.60;;;1.10;99.90;;;;;;2059515;28;20211;-75
2021/04/20 04:28:39;;;;;;;53.65;27.77;;;1.10;99.90;;;;;;2065674;28;20322;-75
2021/04/20 04:29:41;;;;;;;45.97;24.85;;;1.10;99.90;;;;;;2065855;28;20182;-75
2021/04/20 04:30:44;;;;;;;47.65;25.05;;;1.20;99.90;;;;;;2065645;28;20209;-75
2021/04/20 04:31:47;;;;;;;54.10;27.58;;;1.20;99.90;;;;;;2057512;28;20197;-75
2021/04/20 04:32:49;;;;;;;55.80;28.80;;;1.20;99.90;;;;;;2057987;28;20665;-75
2021/04/20 04:33:51;;;;;;;58.13;29.63;;;1.20;99.90;;;;;;2065797;28;20178;-75
2021/04/20 04:34:53;;;;;;;46.80;26.38;;;1.30;99.90;;;;;;2065658;28;20225;-75
2021/04/20 04:35:54;;;;;;;71.15;32.03;;;1.30;99.90;;;;;;2065813;28;20181;-75
2021/04/20 04:36:56;;;;;;;89.90;32.38;;;1.30;99.90;;;;;;2057697;28;20186;-75
2021/04/20 04:37:57;;;;;;;60.20;29.23;;;1.30;99.90;;;;;;2065611;28;20566;-75
2021/04/20 04:38:58;;;;;;;90.10;34.47;;;1.40;99.90;;;;;;2057503;28;20197;-75
2021/04/20 04:39:59;;;;;;;91.93;34.42;;;1.50;99.90;;;;;;2057352;28;20247;-75
2021/04/20 04:41:01;;;;;;;153.80;42.47;;;1.50;99.90;;;;;;2065544;28;20206;-75
2021/04/20 04:42:01;;;;;;;307.15;52.25;;;1.60;99.90;;;;;;2065436;28;20182;-75
2021/04/20 04:43:03;;;;;;;345.87;53.93;;;1.60;99.90;;;;;;2065672;28;20624;-75
2021/04/20 04:44:04;;;;;;;328.98;61.17;;;1.60;99.90;;;;;;2065612;28;20220;-75
2021/04/20 04:45:08;;;;;;;193.67;43.90;;;1.60;99.90;;;;;;2065453;28;20190;-74
2021/04/20 04:46:10;;;;;;;182.15;42.53;;;1.60;99.90;;;;;;2065469;28;20441;-75
2021/04/20 04:47:12;;;;;;;204.05;42.95;;;1.60;99.90;;;;;;2057831;28;20179;-75
2021/04/20 04:48:13;;;;;;;293.00;58.15;;;1.70;99.90;;;;;;2065548;28;20205;-75
2021/04/20 04:49:15;;;;;;;377.63;59.60;;;1.70;99.90;;;;;;2065365;28;20267;-75
2021/04/20 04:50:16;;;;;;;233.30;37.03;;;1.70;99.90;;;;;;2065492;28;20288;-75
2021/04/20 04:51:17;;;;;;;264.40;52.20;;;1.60;99.90;;;;;;2065210;28;20206;-75
2021/04/20 04:52:19;;;;;;;232.80;39.50;;;1.70;99.90;;;;;;2057464;28;20808;-75
2021/04/20 04:53:21;;;;;;;378.17;48.72;;;1.70;99.90;;;;;;2057546;28;20191;-75
2021/04/20 04:54:23;;;;;;;397.55;52.00;;;1.70;99.90;;;;;;2057805;28;20175;-75
2021/04/20 04:55:24;;;;;;;148.82;40.05;;;1.70;99.90;;;;;;2065623;28;20270;-74
2021/04/20 04:56:25;;;;;;;317.33;51.07;;;1.70;99.90;;;;;;2057497;28;20175;-75
2021/04/20 04:57:27;;;;;;;392.38;59.30;;;1.80;99.90;;;;;;2057387;28;20182;-75
2021/04/20 04:58:31;;;;;;;189.82;37.63;;;1.90;99.90;;;;;;2057336;28;20206;-75
2021/04/20 04:59:34;;;;;;;480.63;70.97;;;1.90;99.90;;;;;;2050180;28;20171;-75
2021/04/20 05:00:35;;;;;;;340.98;52.85;;;1.90;99.90;;;;;;2057890;28;20179;-75
2021/04/20 05:01:37;;;;;;;168.48;34.92;;;1.90;99.90;;;;;;2065213;28;20174;-75
2021/04/20 05:02:42;;;;;;;219.27;39.17;;;1.90;99.90;;;;;;2057485;28;20190;-75
2021/04/20 05:03:42;;;;;;;204.70;39.92;;;1.90;99.90;;;;;;2057824;28;20190;-75
2021/04/20 05:04:43;;;;;;;185.50;38.13;;;1.90;99.90;;;;;;2065599;28;20186;-75
2021/04/20 05:05:45;;;;;;;288.27;55.53;;;1.90;99.90;;;;;;2064873;28;20186;-75
2021/04/20 05:06:48;;;;;;;139.57;39.50;;;2.00;99.90;;;;;;2065446;28;20678;-75
2021/04/20 05:07:49;;;;;;;146.85;31.95;;;2.00;99.90;;;;;;2065558;28;20182;-75
2021/04/20 05:08:50;;;;;;;149.97;40.43;;;2.00;99.90;;;;;;2057265;28;20282;-75
2021/04/20 05:09:51;;;;;;;251.87;48.97;;;2.00;99.90;;;;;;2065115;28;20269;-75
2021/04/20 05:10:52;;;;;;;146.43;33.10;;;2.00;99.90;;;;;;2065435;28;20198;-75
2021/04/20 05:11:53;;;;;;;108.37;28.10;;;2.10;99.90;;;;;;2065215;28;20182;-75
2021/04/20 05:12:55;;;;;;;136.90;29.70;;;2.00;99.90;;;;;;2065325;28;20171;-75
2021/04/20 05:13:55;;;;;;;193.10;32.95;;;2.00;99.90;;;;;;2065208;28;20209;-75
2021/04/20 05:14:56;;;;;;;135.23;29.43;;;2.00;99.90;;;;;;2066100;28;20246;-75
2021/04/20 05:16:07;;;;;;;138.00;33.40;;;1.90;99.90;;;;;;2065469;28;20564;-75
2021/04/20 05:17:07;;;;;;;157.30;32.33;;;2.00;99.90;;;;;;2065616;28;20174;-75
2021/04/20 05:18:10;;;;;;;89.83;26.80;;;2.00;99.90;;;;;;2065762;28;20668;-75
2021/04/20 05:19:12;;;;;;;41.95;20.63;;;2.10;99.90;;;;;;2065461;28;20186;-75
2021/04/20 05:20:18;;;;;;;224.27;46.67;;;2.00;99.90;;;;;;2056486;28;20210;-75
2021/04/20 05:21:22;;;;;;;151.98;33.42;;;2.00;99.90;;;;;;2056430;28;20163;-76
2021/04/20 05:22:23;;;;;;;268.05;48.22;;;2.00;99.90;;;;;;2063838;28;20602;-75
2021/04/20 05:23:24;;;;;;;190.67;40.73;;;2.00;99.90;;;;;;2064010;28;20183;-75
2021/04/20 05:24:27;;;;;;;300.20;48.33;;;2.10;99.90;;;;;;2063897;28;20558;-75